LEPA/PMI METAR and TAF weather

Enter ICAO airport designator
Station Type Date Time Source
LEPA METAR 2020/09/19 21:30 UTC NOAA

LEPA 192130Z 23009KT 200V260 9999 FEW022 25/20 Q1015 NOSIG


Station Type Date Time Source
LEPA Decoded METAR 2020/09/19 21:30 UTC NOAA

Palma De Mallorca / Son San Juan, Spain (LEPA) 39-33N 002-44E 8M
Sep 19, 2020 - 05:30 PM EDT / 2020.09.19 2130 UTC
Wind: from the SW (230 degrees) at 10 MPH (9 KT) (direction variable):0
Visibility: greater than 7 mile(s):0
Sky conditions: mostly clear
Temperature: 77 F (25 C)
Dew Point: 68 F (20 C)
Relative Humidity: 73%
Pressure (altimeter): 29.97 in. Hg (1015 hPa)
ob: LEPA 192130Z 23009KT 200V260 9999 FEW022 25/20 Q1015 NOSIG
cycle: 21

Station Type Date Time Source
LEPA TAF 2020/09/19 18:27 UTC NOAA

TAF LEPA 191700Z 1918/2018 23005KT 9999 FEW025 TX30/2012Z TN19/2006Z
BECMG 2011/2013 22010KT

Example: see airport list